createdAt,value
2019-06-10T00:00:11.660Z,990.83
2019-06-10T00:01:06.898Z,990.86
2019-06-10T00:02:05.761Z,990.83
2019-06-10T00:03:05.618Z,990.87
2019-06-10T00:04:06.860Z,990.81
2019-06-10T00:05:05.923Z,990.83
2019-06-10T00:06:05.630Z,990.72
2019-06-10T00:07:05.760Z,990.71
2019-06-10T00:08:05.457Z,990.65
2019-06-10T00:09:06.405Z,990.65
2019-06-10T00:10:05.747Z,990.67
2019-06-10T00:11:05.020Z,990.73
2019-06-10T00:12:05.978Z,990.82
2019-06-10T00:13:05.335Z,990.85
2019-06-10T00:14:05.721Z,990.84
2019-06-10T00:15:04.857Z,990.77
2019-06-10T00:16:06.077Z,990.78
2019-06-10T00:17:05.009Z,990.75
2019-06-10T00:18:24.463Z,990.78
2019-06-10T00:19:06.733Z,990.86
2019-06-10T00:20:05.367Z,990.92
2019-06-10T00:21:05.462Z,990.95
2019-06-10T00:22:05.607Z,991.02
2019-06-10T00:23:05.559Z,991
2019-06-10T00:24:05.615Z,991.11
2019-06-10T00:25:05.716Z,991.21
2019-06-10T00:26:06.341Z,991.3
2019-06-10T00:27:05.859Z,991.29
2019-06-10T00:28:05.627Z,991.25
2019-06-10T00:29:05.799Z,991.25
2019-06-10T00:30:06.425Z,991.23
2019-06-10T00:31:05.644Z,991.22
2019-06-10T00:32:06.254Z,991.21
2019-06-10T00:33:05.830Z,991.21
2019-06-10T00:34:05.962Z,991.18
2019-06-10T00:35:04.956Z,991.15
2019-06-10T00:36:06.738Z,991.12
2019-06-10T00:37:06.231Z,991.16
2019-06-10T00:38:07.051Z,991.11
2019-06-10T00:39:05.610Z,991.17
2019-06-10T00:40:05.834Z,991.17
2019-06-10T00:41:06.932Z,991.19
2019-06-10T00:42:06.607Z,991.2
2019-06-10T00:43:05.654Z,991.15
2019-06-10T00:44:05.586Z,991.13
2019-06-10T00:45:07.038Z,991.1
2019-06-10T00:46:05.853Z,991.12
2019-06-10T00:47:06.304Z,991.09
2019-06-10T00:48:12.195Z,991.08
2019-06-10T00:49:06.234Z,991.03
2019-06-10T00:50:07.221Z,990.99
2019-06-10T00:51:05.703Z,990.94
2019-06-10T00:52:05.845Z,990.82
2019-06-10T00:53:05.837Z,990.67
2019-06-10T00:54:05.255Z,990.57
2019-06-10T00:55:04.890Z,990.46
2019-06-10T00:56:05.645Z,990.36
2019-06-10T00:57:05.544Z,990.32
2019-06-10T00:58:05.667Z,990.37
2019-06-10T00:59:05.715Z,990.46
2019-06-10T01:00:14.424Z,990.56
2019-06-10T01:01:05.645Z,990.67
2019-06-10T01:02:04.962Z,990.8
2019-06-10T01:03:04.433Z,990.85
2019-06-10T01:04:05.417Z,990.84
2019-06-10T01:05:05.050Z,990.88
2019-06-10T01:06:04.696Z,990.83
2019-06-10T01:07:04.428Z,990.82
2019-06-10T01:08:04.618Z,990.78
2019-06-10T01:09:04.532Z,990.78
2019-06-10T01:10:04.731Z,990.73
2019-06-10T01:11:10.188Z,990.68
2019-06-10T01:12:04.820Z,990.59
2019-06-10T01:13:05.052Z,990.54
2019-06-10T01:14:05.159Z,990.48
2019-06-10T01:15:05.252Z,990.55
2019-06-10T01:16:05.379Z,990.65
2019-06-10T01:17:05.465Z,990.74
2019-06-10T01:18:05.468Z,990.75
2019-06-10T01:19:05.682Z,990.73
2019-06-10T01:20:05.727Z,990.64
2019-06-10T01:21:04.408Z,990.59
2019-06-10T01:22:04.405Z,990.49
2019-06-10T01:23:04.973Z,990.46
2019-06-10T01:24:05.012Z,990.41
2019-06-10T01:25:05.196Z,990.44
2019-06-10T01:26:05.672Z,990.42
2019-06-10T01:27:05.454Z,990.46
2019-06-10T01:28:05.415Z,990.5
2019-06-10T01:29:05.419Z,990.49
2019-06-10T01:30:10.055Z,990.5
2019-06-10T01:31:04.393Z,990.43
2019-06-10T01:32:05.144Z,990.41
2019-06-10T01:33:04.391Z,990.4
2019-06-10T01:34:05.409Z,990.36
2019-06-10T01:35:04.479Z,990.35
2019-06-10T01:36:05.470Z,990.31
2019-06-10T01:37:04.386Z,990.34
2019-06-10T01:38:04.384Z,990.34
2019-06-10T01:39:04.396Z,990.35
2019-06-10T01:40:04.411Z,990.29
2019-06-10T01:41:04.381Z,990.35
2019-06-10T01:42:04.383Z,990.33
2019-06-10T01:43:04.382Z,990.27
2019-06-10T01:44:04.382Z,990.26
2019-06-10T01:45:04.384Z,990.25
2019-06-10T01:46:04.381Z,990.33
2019-06-10T01:47:04.378Z,990.3
2019-06-10T01:48:04.380Z,990.36
2019-06-10T01:49:04.377Z,990.4
2019-06-10T01:50:04.385Z,990.31
2019-06-10T01:51:04.401Z,990.24
2019-06-10T01:52:04.380Z,990.14
2019-06-10T01:53:04.384Z,990.09
2019-06-10T01:54:04.379Z,990.02
2019-06-10T01:55:04.378Z,990.01
2019-06-10T01:56:04.371Z,990.04
2019-06-10T01:57:04.373Z,990.11
2019-06-10T01:58:04.369Z,990.16
2019-06-10T01:59:04.366Z,990.25
2019-06-10T02:00:09.141Z,990.28
2019-06-10T02:01:04.379Z,990.24
2019-06-10T02:02:04.388Z,990.21
2019-06-10T02:03:04.375Z,990.21
2019-06-10T02:04:04.367Z,990.19
2019-06-10T02:05:04.363Z,990.24
2019-06-10T02:06:04.363Z,990.31
2019-06-10T02:07:04.369Z,990.33
2019-06-10T02:08:04.358Z,990.33
2019-06-10T02:09:04.357Z,990.31
2019-06-10T02:10:04.357Z,990.24
2019-06-10T02:11:04.353Z,990.26
2019-06-10T02:12:04.354Z,990.26
2019-06-10T02:13:04.354Z,990.33
2019-06-10T02:14:04.353Z,990.48
2019-06-10T02:15:04.352Z,990.55
2019-06-10T02:16:04.352Z,990.58
2019-06-10T02:17:04.353Z,990.59
2019-06-10T02:18:04.350Z,990.57
2019-06-10T02:19:04.406Z,990.48
2019-06-10T02:20:04.346Z,990.46
2019-06-10T02:21:04.343Z,990.43
2019-06-10T02:22:04.355Z,990.45
2019-06-10T02:23:04.342Z,990.54
2019-06-10T02:24:04.343Z,990.59
2019-06-10T02:25:04.348Z,990.57
2019-06-10T02:26:04.343Z,990.54
2019-06-10T02:27:04.337Z,990.43
2019-06-10T02:28:04.335Z,990.43
2019-06-10T02:29:04.338Z,990.4
2019-06-10T02:30:14.660Z,990.41
2019-06-10T02:31:04.340Z,990.46
2019-06-10T02:32:05.169Z,990.45
2019-06-10T02:33:04.345Z,990.46
2019-06-10T02:34:04.341Z,990.41
2019-06-10T02:35:13.374Z,990.37
2019-06-10T02:36:04.851Z,990.26
2019-06-10T02:37:04.840Z,990.14
2019-06-10T02:38:04.342Z,990.1
2019-06-10T02:39:04.800Z,990.09
2019-06-10T02:40:04.792Z,990.09
2019-06-10T02:41:04.952Z,990.14
2019-06-10T02:42:04.761Z,990.09
2019-06-10T02:43:04.322Z,990.07
2019-06-10T02:44:04.664Z,990.04
2019-06-10T02:45:04.340Z,989.95
2019-06-10T02:46:04.910Z,989.94
2019-06-10T02:47:04.316Z,989.93
2019-06-10T02:48:04.464Z,990.02
2019-06-10T02:49:20.319Z,990.15
2019-06-10T02:50:21.313Z,990.21
2019-06-10T02:51:19.589Z,990.26
2019-06-10T02:52:19.655Z,990.39
2019-06-10T02:53:17.682Z,990.54
2019-06-10T02:54:20.156Z,990.64
2019-06-10T02:55:18.222Z,990.77
2019-06-10T02:56:17.739Z,990.85
2019-06-10T02:57:18.658Z,990.89
2019-06-10T02:58:18.964Z,990.83
2019-06-10T02:59:18.215Z,990.69
2019-06-10T03:00:26.168Z,990.58
2019-06-10T03:01:19.203Z,990.43
2019-06-10T03:02:18.231Z,990.44
2019-06-10T03:03:22.664Z,990.38
2019-06-10T03:04:18.236Z,990.28
2019-06-10T03:05:19.526Z,990.17
2019-06-10T03:06:19.793Z,990.14
2019-06-10T03:07:17.878Z,990.2
2019-06-10T03:08:18.362Z,990.23
2019-06-10T03:09:18.366Z,990.38
2019-06-10T03:10:19.470Z,990.41
2019-06-10T03:11:19.160Z,990.45
2019-06-10T03:12:17.630Z,990.44
2019-06-10T03:13:17.621Z,990.42
2019-06-10T03:14:17.713Z,990.44
2019-06-10T03:15:17.852Z,990.44
2019-06-10T03:16:17.785Z,990.45
2019-06-10T03:17:17.756Z,990.39
2019-06-10T03:18:17.786Z,990.42
2019-06-10T03:19:29.767Z,990.44
2019-06-10T03:20:17.885Z,990.42
2019-06-10T03:21:17.943Z,990.43
2019-06-10T03:22:17.961Z,990.45
2019-06-10T03:23:17.971Z,990.46
2019-06-10T03:24:17.091Z,990.48
2019-06-10T03:25:18.204Z,990.49
2019-06-10T03:26:17.270Z,990.41
2019-06-10T03:27:18.148Z,990.4
2019-06-10T03:28:17.401Z,990.38
2019-06-10T03:29:17.098Z,990.31
2019-06-10T03:30:25.996Z,990.28
2019-06-10T03:31:18.697Z,990.24
2019-06-10T03:32:19.546Z,990.09
2019-06-10T03:33:17.657Z,989.93
2019-06-10T03:34:18.005Z,989.78
2019-06-10T03:35:17.339Z,989.69
2019-06-10T03:36:18.191Z,989.59
2019-06-10T03:37:18.233Z,989.53
2019-06-10T03:38:17.166Z,989.48
2019-06-10T03:39:17.090Z,989.51
2019-06-10T03:40:18.269Z,989.56
2019-06-10T03:41:17.070Z,989.64
2019-06-10T03:42:17.078Z,989.69
2019-06-10T03:43:17.080Z,989.73
2019-06-10T03:44:17.077Z,989.76
2019-06-10T03:45:17.510Z,989.74
2019-06-10T03:46:17.302Z,989.75
2019-06-10T03:47:17.146Z,989.75
2019-06-10T03:48:17.163Z,989.8
2019-06-10T03:49:17.189Z,989.78
2019-06-10T03:50:17.209Z,989.84
2019-06-10T03:51:17.205Z,989.81
2019-06-10T03:52:17.156Z,989.85
2019-06-10T03:53:17.312Z,989.82
2019-06-10T03:54:17.178Z,989.82
2019-06-10T03:55:17.287Z,989.78
2019-06-10T03:56:17.127Z,989.79
2019-06-10T03:57:17.192Z,989.73
2019-06-10T03:58:17.436Z,989.76
2019-06-10T03:59:17.224Z,989.72
2019-06-10T04:00:17.439Z,989.73
2019-06-10T04:01:17.374Z,989.66
2019-06-10T04:02:17.316Z,989.68
2019-06-10T04:03:17.496Z,989.68
2019-06-10T04:04:17.361Z,989.65
2019-06-10T04:05:17.575Z,989.66
2019-06-10T04:06:17.438Z,989.6
2019-06-10T04:07:18.053Z,989.58
2019-06-10T04:08:17.425Z,989.49
2019-06-10T04:09:17.442Z,989.5
2019-06-10T04:10:17.517Z,989.48
2019-06-10T04:11:17.418Z,989.52
2019-06-10T04:12:17.455Z,989.53
2019-06-10T04:13:17.470Z,989.58
2019-06-10T04:14:17.565Z,989.52
2019-06-10T04:15:17.589Z,989.5
2019-06-10T04:16:17.599Z,989.41
2019-06-10T04:17:17.522Z,989.36
2019-06-10T04:18:17.806Z,989.38
2019-06-10T04:19:17.606Z,989.34
2019-06-10T04:20:17.717Z,989.41
2019-06-10T04:21:17.625Z,989.44
2019-06-10T04:22:17.610Z,989.53
2019-06-10T04:23:17.656Z,989.56
2019-06-10T04:24:17.652Z,989.55
2019-06-10T04:25:17.746Z,989.55
2019-06-10T04:26:17.762Z,989.48
2019-06-10T04:27:17.676Z,989.45
2019-06-10T04:28:17.767Z,989.44
2019-06-10T04:29:17.887Z,989.45
2019-06-10T04:30:18.184Z,989.47
2019-06-10T04:31:18.178Z,989.5
2019-06-10T04:32:18.033Z,989.5
2019-06-10T04:33:18.267Z,989.44
2019-06-10T04:34:18.247Z,989.45
2019-06-10T04:35:18.235Z,989.41
2019-06-10T04:36:18.278Z,989.36
2019-06-10T04:37:18.282Z,989.32
2019-06-10T04:38:17.189Z,989.29
2019-06-10T04:39:18.405Z,989.32
2019-06-10T04:40:18.342Z,989.35
2019-06-10T04:41:18.135Z,989.34
2019-06-10T04:42:18.127Z,989.34
2019-06-10T04:43:18.158Z,989.34
2019-06-10T04:44:17.005Z,989.33
2019-06-10T04:45:17.014Z,989.34
2019-06-10T04:46:17.014Z,989.37
2019-06-10T04:47:17.002Z,989.41
2019-06-10T04:48:17.010Z,989.4
2019-06-10T04:49:17.005Z,989.43
2019-06-10T04:50:24.520Z,989.39
2019-06-10T04:51:17.002Z,989.41
2019-06-10T04:52:17.002Z,989.31
2019-06-10T04:53:17.000Z,989.29
2019-06-10T04:54:17.001Z,989.23
2019-06-10T04:55:17.000Z,989.19
2019-06-10T04:56:16.998Z,989.23
2019-06-10T04:57:16.995Z,989.3
2019-06-10T04:58:16.994Z,989.32
2019-06-10T04:59:16.999Z,989.39
2019-06-10T05:00:16.998Z,989.39
2019-06-10T05:01:16.994Z,989.46
2019-06-10T05:02:16.990Z,989.45
2019-06-10T05:03:16.991Z,989.41
2019-06-10T05:04:16.992Z,989.43
2019-06-10T05:05:16.999Z,989.41
2019-06-10T05:06:17.010Z,989.44
2019-06-10T05:07:16.990Z,989.46
2019-06-10T05:08:17.001Z,989.46
2019-06-10T05:09:16.992Z,989.47
2019-06-10T05:10:16.991Z,989.51
2019-06-10T05:11:16.987Z,989.48
2019-06-10T05:12:16.986Z,989.45
2019-06-10T05:13:16.986Z,989.39
2019-06-10T05:14:16.987Z,989.39
2019-06-10T05:15:16.989Z,989.37
2019-06-10T05:16:17.000Z,989.4
2019-06-10T05:17:16.981Z,989.45
2019-06-10T05:18:16.981Z,989.48
2019-06-10T05:19:16.989Z,989.49
2019-06-10T05:20:16.981Z,989.5
2019-06-10T05:21:16.980Z,989.56
2019-06-10T05:22:16.979Z,989.57
2019-06-10T05:23:16.979Z,989.56
2019-06-10T05:24:16.978Z,989.6
2019-06-10T05:25:16.977Z,989.58
2019-06-10T05:26:16.978Z,989.59
2019-06-10T05:27:16.976Z,989.61
2019-06-10T05:28:16.973Z,989.64
2019-06-10T05:29:16.982Z,989.64
2019-06-10T05:30:16.979Z,989.72
2019-06-10T05:31:16.984Z,989.7
2019-06-10T05:32:16.981Z,989.73
2019-06-10T05:33:16.984Z,989.73
2019-06-10T05:34:16.985Z,989.74
2019-06-10T05:35:16.969Z,989.8
2019-06-10T05:36:16.977Z,989.83
2019-06-10T05:37:16.968Z,989.81
2019-06-10T05:38:16.965Z,989.89
2019-06-10T05:39:16.966Z,989.94
2019-06-10T05:40:16.978Z,989.98
2019-06-10T05:41:16.962Z,989.98
2019-06-10T05:42:16.964Z,990.02
2019-06-10T05:43:16.961Z,990.07
2019-06-10T05:44:16.961Z,990.06
2019-06-10T05:45:16.962Z,990.01
2019-06-10T05:46:16.960Z,989.94
2019-06-10T05:47:16.958Z,989.88
2019-06-10T05:48:16.995Z,989.87
2019-06-10T05:49:16.955Z,989.88
2019-06-10T05:50:16.956Z,989.92
2019-06-10T05:51:16.956Z,989.93
2019-06-10T05:52:16.958Z,989.91
2019-06-10T05:53:16.954Z,989.91
2019-06-10T05:54:16.955Z,989.92
2019-06-10T05:55:16.953Z,989.92
2019-06-10T05:56:16.953Z,989.88
2019-06-10T05:57:16.960Z,989.91
2019-06-10T05:58:16.953Z,989.86
2019-06-10T05:59:16.954Z,989.86
2019-06-10T06:00:16.955Z,989.87
2019-06-10T06:01:16.965Z,989.88
2019-06-10T06:02:16.954Z,989.87
2019-06-10T06:03:16.951Z,989.89
2019-06-10T06:04:16.952Z,989.9
2019-06-10T06:05:16.952Z,989.94
2019-06-10T06:06:16.952Z,989.9
2019-06-10T06:07:16.951Z,989.95
2019-06-10T06:08:16.951Z,989.93
2019-06-10T06:09:16.950Z,989.94
2019-06-10T06:10:16.951Z,989.96
2019-06-10T06:11:17.002Z,989.96
2019-06-10T06:12:17.008Z,990.02
2019-06-10T06:13:16.951Z,990.06
2019-06-10T06:14:16.949Z,990.05
2019-06-10T06:15:16.951Z,990.08
2019-06-10T06:16:16.949Z,990.06
2019-06-10T06:17:16.951Z,990.04
2019-06-10T06:18:16.951Z,990.06
2019-06-10T06:19:16.951Z,990.08
2019-06-10T06:20:16.952Z,990.05
2019-06-10T06:21:24.796Z,990.08
2019-06-10T06:22:16.957Z,990.06
2019-06-10T06:23:16.954Z,990.07
2019-06-10T06:24:16.989Z,990.07
2019-06-10T06:25:17.754Z,990.09
2019-06-10T06:26:16.955Z,990.13
2019-06-10T06:27:16.954Z,990.15
2019-06-10T06:28:16.965Z,990.14
2019-06-10T06:29:16.987Z,990.15
2019-06-10T06:30:18.785Z,990.21
2019-06-10T06:31:16.960Z,990.23
2019-06-10T06:32:16.955Z,990.3
2019-06-10T06:33:16.957Z,990.34
2019-06-10T06:34:16.987Z,990.35
2019-06-10T06:35:16.960Z,990.33
2019-06-10T06:36:16.962Z,990.33
2019-06-10T06:37:16.959Z,990.29
2019-06-10T06:38:16.960Z,990.32
2019-06-10T06:39:16.962Z,990.3
2019-06-10T06:40:16.961Z,990.33
2019-06-10T06:41:16.961Z,990.35
2019-06-10T06:42:16.964Z,990.35
2019-06-10T06:43:16.965Z,990.35
2019-06-10T06:44:16.966Z,990.4
2019-06-10T06:45:16.970Z,990.39
2019-06-10T06:46:16.966Z,990.4
2019-06-10T06:47:16.966Z,990.37
2019-06-10T06:48:16.968Z,990.39
2019-06-10T06:49:16.971Z,990.44
2019-06-10T06:50:16.966Z,990.47
2019-06-10T06:51:16.969Z,990.49
2019-06-10T06:52:16.970Z,990.49
2019-06-10T06:53:52.820Z,990.62
2019-06-10T06:54:48.795Z,990.63
2019-06-10T06:55:48.794Z,990.65
2019-06-10T06:56:48.804Z,990.68
2019-06-10T06:57:48.814Z,990.62
2019-06-10T06:58:48.796Z,990.67
2019-06-10T06:59:48.800Z,990.64
2019-06-10T07:01:01.240Z,990.69
2019-06-10T07:01:48.798Z,990.65
2019-06-10T07:02:48.800Z,990.66
2019-06-10T07:03:48.800Z,990.58
2019-06-10T07:04:48.801Z,990.55
2019-06-10T07:05:48.882Z,990.47
2019-06-10T07:06:48.806Z,990.44
2019-06-10T07:07:48.803Z,990.41
2019-06-10T07:09:01.295Z,990.39
2019-06-10T07:09:48.809Z,990.41
2019-06-10T07:10:48.816Z,990.35
2019-06-10T07:11:48.812Z,990.37
2019-06-10T07:12:48.812Z,990.38
2019-06-10T07:13:48.813Z,990.42
2019-06-10T07:14:48.817Z,990.43
2019-06-10T07:15:48.817Z,990.47
2019-06-10T07:16:48.818Z,990.43
2019-06-10T07:17:48.823Z,990.48
2019-06-10T07:18:50.074Z,990.44
2019-06-10T07:19:48.825Z,990.39
2019-06-10T07:20:48.827Z,990.38
2019-06-10T07:22:05.171Z,990.36
2019-06-10T07:22:48.833Z,990.34
2019-06-10T07:23:48.830Z,990.37
2019-06-10T07:24:48.842Z,990.37
2019-06-10T07:25:48.833Z,990.33
2019-06-10T07:26:51.847Z,990.41
2019-06-10T07:27:48.837Z,990.37
2019-06-10T07:28:48.842Z,990.3
2019-06-10T07:29:48.841Z,990.23
2019-06-10T07:30:52.416Z,990.27
2019-06-10T07:31:50.225Z,990.24
2019-06-10T07:32:48.851Z,990.23
2019-06-10T07:33:48.852Z,990.23
2019-06-10T07:34:48.853Z,990.3
2019-06-10T07:35:48.861Z,990.37
2019-06-10T07:36:48.857Z,990.39
2019-06-10T07:37:48.867Z,990.43
2019-06-10T07:38:49.280Z,990.45
2019-06-10T07:39:48.868Z,990.5
2019-06-10T07:40:48.866Z,990.58
2019-06-10T07:41:48.958Z,990.54
2019-06-10T07:42:48.870Z,990.56
2019-06-10T07:43:49.741Z,990.54
2019-06-10T07:44:48.873Z,990.55
2019-06-10T07:45:48.878Z,990.52
2019-06-10T07:46:48.876Z,990.53
2019-06-10T07:47:48.880Z,990.51
2019-06-10T07:48:52.577Z,990.52
2019-06-10T07:49:48.886Z,990.5
2019-06-10T07:50:48.885Z,990.52
2019-06-10T07:51:48.888Z,990.48
2019-06-10T07:52:48.891Z,990.51
2019-06-10T07:53:48.894Z,990.51
2019-06-10T07:54:48.896Z,990.53
2019-06-10T07:55:48.900Z,990.56
2019-06-10T07:56:50.624Z,990.56
2019-06-10T07:57:48.912Z,990.61
2019-06-10T07:58:48.908Z,990.63
2019-06-10T07:59:48.907Z,990.6
2019-06-10T08:00:48.917Z,990.59
2019-06-10T08:01:51.559Z,990.6
2019-06-10T08:02:48.912Z,990.65
2019-06-10T08:03:48.921Z,990.62
2019-06-10T08:04:48.919Z,990.57
2019-06-10T08:05:48.924Z,990.58
2019-06-10T08:06:49.953Z,990.6
2019-06-10T08:07:49.068Z,990.56
2019-06-10T08:08:48.924Z,990.56
2019-06-10T08:09:48.932Z,990.54
2019-06-10T08:10:48.929Z,990.58
2019-06-10T08:11:48.985Z,990.55
2019-06-10T08:12:48.933Z,990.54
2019-06-10T08:13:48.942Z,990.47
2019-06-10T08:14:48.942Z,990.4
2019-06-10T08:15:48.947Z,990.34
2019-06-10T08:16:48.947Z,990.35
2019-06-10T08:17:48.949Z,990.32
2019-06-10T08:19:15.811Z,990.34
2019-06-10T08:19:54.587Z,990.37
2019-06-10T08:20:54.587Z,990.41
2019-06-10T08:21:54.582Z,990.42
2019-06-10T08:22:57.716Z,990.35
2019-06-10T08:23:54.589Z,990.34
2019-06-10T08:24:54.602Z,990.25
2019-06-10T08:25:57.690Z,990.18
2019-06-10T08:26:54.596Z,990.14
2019-06-10T08:27:54.599Z,990.15
2019-06-10T08:28:54.604Z,990.04
2019-06-10T08:30:13.963Z,990.04
2019-06-10T08:30:54.606Z,989.98
2019-06-10T08:31:54.615Z,989.89
2019-06-10T08:32:56.564Z,989.84
2019-06-10T08:33:54.615Z,989.86
2019-06-10T08:34:54.615Z,989.8
2019-06-10T08:35:59.292Z,989.83
2019-06-10T08:36:54.719Z,989.78
2019-06-10T08:37:54.618Z,989.81
2019-06-10T08:38:54.623Z,989.84
2019-06-10T08:39:54.624Z,989.82
2019-06-10T08:40:54.632Z,989.83
2019-06-10T08:41:54.633Z,989.83
2019-06-10T08:42:54.647Z,989.86
2019-06-10T08:43:54.647Z,989.84
2019-06-10T08:44:54.633Z,989.89
2019-06-10T08:45:54.638Z,989.9
2019-06-10T08:46:54.643Z,989.9
2019-06-10T08:47:54.646Z,989.89
2019-06-10T08:48:54.649Z,989.9
2019-06-10T08:49:54.646Z,989.91
2019-06-10T08:50:54.660Z,989.89
2019-06-10T08:51:54.675Z,989.83
2019-06-10T08:53:10.176Z,989.75
2019-06-10T08:53:54.662Z,989.7
2019-06-10T08:54:54.774Z,989.73
2019-06-10T08:55:54.689Z,989.78
2019-06-10T08:56:54.677Z,989.83
2019-06-10T08:57:54.664Z,989.81
2019-06-10T08:58:54.675Z,989.86
2019-06-10T08:59:54.665Z,989.79
2019-06-10T09:00:54.674Z,989.73
2019-06-10T09:01:56.649Z,989.68
2019-06-10T09:02:54.708Z,989.62
2019-06-10T09:03:54.682Z,989.61
2019-06-10T09:04:54.692Z,989.61
2019-06-10T09:05:57.662Z,989.62
2019-06-10T09:06:54.702Z,989.6
2019-06-10T09:07:54.684Z,989.56
2019-06-10T09:08:54.862Z,989.57
2019-06-10T09:09:54.691Z,989.45
2019-06-10T09:10:55.303Z,989.43
2019-06-10T09:11:54.921Z,989.35
2019-06-10T09:12:54.819Z,989.33
2019-06-10T09:13:54.706Z,989.3
2019-06-10T09:14:54.694Z,989.28
2019-06-10T09:16:09.645Z,989.27
2019-06-10T09:16:54.700Z,989.21
2019-06-10T09:17:56.037Z,989.18
2019-06-10T09:18:55.377Z,989.22
2019-06-10T09:19:54.706Z,989.18
2019-06-10T09:20:56.060Z,989.14
2019-06-10T09:21:56.267Z,989.01
2019-06-10T09:23:14.727Z,988.95
2019-06-10T09:23:59.565Z,988.9
2019-06-10T09:24:56.220Z,988.84
2019-06-10T09:25:57.405Z,988.86
2019-06-10T09:26:55.125Z,988.84
2019-06-10T09:27:54.853Z,988.67
2019-06-10T09:28:56.510Z,988.61
2019-06-10T09:29:55.443Z,988.61
2019-06-10T09:30:59.056Z,988.43
2019-06-10T09:31:55.770Z,988.31
2019-06-10T09:32:56.458Z,988.34
2019-06-10T09:33:56.963Z,988.36
2019-06-10T09:34:57.514Z,988.33
2019-06-10T09:35:55.092Z,988.38
2019-06-10T09:36:56.756Z,988.25
2019-06-10T09:37:55.601Z,988.14
2019-06-10T09:38:55.719Z,988.17
2019-06-10T09:39:59.340Z,988.11
2019-06-10T09:41:01.191Z,988.15
2019-06-10T09:42:01.378Z,988.16
2019-06-10T09:42:55.151Z,988.03
2019-06-10T09:43:56.840Z,988.09
2019-06-10T09:44:55.554Z,988.13
2019-06-10T09:45:56.429Z,988.1
2019-06-10T09:46:56.041Z,988.08
2019-06-10T09:47:59.752Z,988.13
2019-06-10T09:48:55.903Z,988.14
2019-06-10T09:49:55.727Z,988.22
2019-06-10T09:50:58.480Z,988.24
2019-06-10T09:51:57.410Z,988.15
2019-06-10T09:52:57.015Z,987.98
2019-06-10T09:54:02.850Z,987.97
2019-06-10T09:54:56.650Z,987.98
2019-06-10T09:55:55.508Z,988.02
2019-06-10T09:56:54.853Z,988.07
2019-06-10T09:57:59.710Z,988.08
2019-06-10T09:58:55.449Z,988.05
2019-06-10T09:59:56.419Z,988.05
2019-06-10T10:00:57.638Z,988.12
2019-06-10T10:01:58.789Z,988.06
2019-06-10T10:02:56.146Z,988.03
2019-06-10T10:03:59.687Z,988.03
2019-06-10T10:04:58.223Z,987.93
2019-06-10T10:06:06.373Z,987.98
2019-06-10T10:06:57.285Z,987.95
2019-06-10T10:07:57.232Z,987.95
2019-06-10T10:08:58.125Z,987.97
2019-06-10T10:09:56.961Z,987.95
2019-06-10T10:10:58.563Z,988
2019-06-10T10:11:56.004Z,987.91
2019-06-10T10:12:55.752Z,987.94
2019-06-10T10:13:54.907Z,987.94
2019-06-10T10:14:56.285Z,988.02
2019-06-10T10:15:54.920Z,988.14
2019-06-10T10:16:59.147Z,988.22
2019-06-10T10:17:56.403Z,988.31
2019-06-10T10:19:00.090Z,988.34
2019-06-10T10:19:56.974Z,988.44
2019-06-10T10:20:59.005Z,988.35
2019-06-10T10:21:58.062Z,988.3
2019-06-10T10:22:55.507Z,988.33
2019-06-10T10:24:06.726Z,988.33
2019-06-10T10:24:56.729Z,988.46
2019-06-10T10:25:57.043Z,988.56
2019-06-10T10:26:57.457Z,988.59
2019-06-10T10:27:57.542Z,988.44
2019-06-10T10:28:56.875Z,988.48
2019-06-10T10:29:57.096Z,988.39
2019-06-10T10:30:57.720Z,988.38
2019-06-10T10:31:54.988Z,988.46
2019-06-10T10:32:54.984Z,988.49
2019-06-10T10:33:55.008Z,988.45
2019-06-10T10:34:56.317Z,988.42
2019-06-10T10:35:55.004Z,988.42
2019-06-10T10:36:57.214Z,988.44
2019-06-10T10:37:55.745Z,988.46
2019-06-10T10:38:55.019Z,988.47
2019-06-10T10:39:56.496Z,988.46
2019-06-10T10:40:58.448Z,988.35
2019-06-10T10:41:57.113Z,988.24
2019-06-10T10:43:05.531Z,988.13
2019-06-10T10:43:57.720Z,988.03
2019-06-10T10:44:58.471Z,987.99
2019-06-10T10:46:00.042Z,987.99
2019-06-10T10:46:55.855Z,988.01
2019-06-10T10:47:56.645Z,987.98
2019-06-10T10:48:56.441Z,987.95
2019-06-10T10:49:57.054Z,987.91
2019-06-10T10:50:56.080Z,987.92
2019-06-10T10:51:55.067Z,987.91
2019-06-10T10:52:55.072Z,987.9
2019-06-10T10:54:17.602Z,987.92
2019-06-10T10:54:55.601Z,987.94
2019-06-10T10:55:55.082Z,988.02
2019-06-10T10:56:58.744Z,987.96
2019-06-10T10:57:55.839Z,987.95
2019-06-10T10:58:57.850Z,987.93
2019-06-10T10:59:56.187Z,987.89
2019-06-10T11:00:57.792Z,987.89
2019-06-10T11:01:55.906Z,987.81
2019-06-10T11:02:55.110Z,987.91
2019-06-10T11:03:58.699Z,987.88
2019-06-10T11:04:56.942Z,987.91
2019-06-10T11:06:00.600Z,987.91
2019-06-10T11:06:56.955Z,987.81
2019-06-10T11:07:56.631Z,987.82
2019-06-10T11:08:57.443Z,987.78
2019-06-10T11:09:56.742Z,987.79
2019-06-10T11:10:59.200Z,987.76
2019-06-10T11:11:55.148Z,987.71
2019-06-10T11:12:55.442Z,987.67
2019-06-10T11:13:57.117Z,987.67
2019-06-10T11:14:59.805Z,987.66
2019-06-10T11:15:56.744Z,987.63
2019-06-10T11:16:57.359Z,987.52
2019-06-10T11:17:56.474Z,987.44
2019-06-10T11:18:56.347Z,987.53
2019-06-10T11:19:55.903Z,987.44
2019-06-10T11:20:55.185Z,987.38
2019-06-10T11:21:55.189Z,987.36
2019-06-10T11:22:55.203Z,987.3
2019-06-10T11:23:59.840Z,987.31
2019-06-10T11:24:56.434Z,987.29
2019-06-10T11:25:57.084Z,987.24
2019-06-10T11:26:56.510Z,987.22
2019-06-10T11:27:56.033Z,987.22
2019-06-10T11:28:55.765Z,987.14
2019-06-10T11:29:57.746Z,987.18
2019-06-10T11:30:56.802Z,987.24
2019-06-10T11:31:57.190Z,987.2
2019-06-10T11:32:57.198Z,987.15
2019-06-10T11:33:57.800Z,987.16
2019-06-10T11:34:56.866Z,987.18
2019-06-10T11:35:57.521Z,987.13
2019-06-10T11:36:56.387Z,987.11
2019-06-10T11:37:56.414Z,987.13
2019-06-10T11:38:57.737Z,987.14
2019-06-10T11:39:56.248Z,987.13
2019-06-10T11:40:58.432Z,987.14
2019-06-10T11:41:56.357Z,987.14
2019-06-10T11:42:57.834Z,987.06
2019-06-10T11:43:57.995Z,987.09
2019-06-10T11:44:57.911Z,987.03
2019-06-10T11:46:01.534Z,987.04
2019-06-10T11:46:58.043Z,987.03
2019-06-10T11:47:56.662Z,987.03
2019-06-10T11:48:57.222Z,987.04
2019-06-10T11:49:56.495Z,987.08
2019-06-10T11:50:58.827Z,987.08
2019-06-10T11:51:56.438Z,987.17
2019-06-10T11:52:58.816Z,987.19
2019-06-10T11:53:57.163Z,987.21
2019-06-10T11:55:08.797Z,987.23
2019-06-10T11:55:55.878Z,987.21
2019-06-10T11:56:57.769Z,987.21
2019-06-10T11:57:57.559Z,987.26
2019-06-10T11:58:58.332Z,987.25
2019-06-10T11:59:56.407Z,987.31
2019-06-10T12:00:57.468Z,987.34
2019-06-10T12:01:56.759Z,987.39
2019-06-10T12:02:57.185Z,987.45
2019-06-10T12:03:57.515Z,987.47
2019-06-10T12:04:57.054Z,987.51
2019-06-10T12:05:57.712Z,987.59
2019-06-10T12:06:55.350Z,987.57
2019-06-10T12:07:58.192Z,987.6
2019-06-10T12:08:58.284Z,987.6
2019-06-10T12:09:57.917Z,987.59
2019-06-10T12:10:58.999Z,987.57
2019-06-10T12:11:59.255Z,987.54
2019-06-10T12:12:58.443Z,987.53
2019-06-10T12:14:00.529Z,987.47
2019-06-10T12:14:58.175Z,987.39
2019-06-10T12:16:32.353Z,987.36
2019-06-10T12:18:08.760Z,987.27
2019-06-10T12:19:06.380Z,987.3
2019-06-10T12:20:06.423Z,987.27
2019-06-10T12:21:06.383Z,987.26
2019-06-10T12:22:07.479Z,987.26
2019-06-10T12:23:06.400Z,987.32
2019-06-10T12:24:06.418Z,987.33
2019-06-10T12:25:28.259Z,987.3
2019-06-10T12:26:06.399Z,987.29
2019-06-10T12:27:06.399Z,987.23
2019-06-10T12:28:07.383Z,987.22
2019-06-10T12:29:06.403Z,987.26
2019-06-10T12:30:06.410Z,987.24
2019-06-10T12:31:07.370Z,987.26
2019-06-10T12:32:07.476Z,987.23